Time;durP1;ratioP1;P1;durP2;ratioP2;P2;SDS_P1;SDS_P2;PMS_P1;PMS_P2;Temp;Humidity;BMP_temperature;BMP_pressure;BME280_temperature;BME280_humidity;BME280_pressure;Samples;Min_cycle;Max_cycle;Signal;HPM_P1;HPM_P2
2024/04/11 00:03:16;;;;;;;4.90;2.80;;;;;;;7.38;100.00;150526.75;11066826;26;19997;-73
2024/04/11 00:08:19;;;;;;;3.42;2.90;;;;;;;7.22;100.00;150485.59;11064412;26;20009;-73
2024/04/11 00:13:21;;;;;;;2.92;2.63;;;;;;;7.08;100.00;150450.78;11066409;26;20000;-74
2024/04/11 00:18:24;;;;;;;3.72;2.80;;;;;;;7.06;100.00;150446.94;11065942;26;20009;-72
2024/04/11 00:23:26;;;;;;;3.33;3.03;;;;;;;7.07;100.00;150449.50;11068756;26;20008;-77
2024/04/11 00:28:29;;;;;;;4.38;3.28;;;;;;;6.89;100.00;150403.16;11068412;26;20402;-77
2024/04/11 00:33:31;;;;;;;3.63;3.05;;;;;;;6.89;100.00;150401.88;11068876;26;20004;-77
2024/04/11 00:38:33;;;;;;;3.33;2.72;;;;;;;6.79;100.00;150378.69;11071419;26;20013;-77
2024/04/11 00:43:35;;;;;;;4.75;2.97;;;;;;;6.82;100.00;150386.44;11068950;26;20012;-77
2024/04/11 00:48:39;;;;;;;5.65;3.08;;;;;;;6.81;100.00;150383.81;11069290;26;20056;-78
2024/04/11 00:53:42;;;;;;;4.95;2.65;;;;;;;6.70;100.00;150354.25;11072523;26;20001;-76
2024/04/11 00:58:44;;;;;;;4.20;2.85;;;;;;;6.66;100.00;150343.94;11065149;26;20074;-77
2024/04/11 01:03:46;;;;;;;2.85;2.53;;;;;;;6.61;100.00;150331.06;11065883;26;20001;-77
2024/04/11 01:08:51;;;;;;;4.97;3.92;;;;;;;6.66;100.00;150345.22;11065803;26;20086;-76
2024/04/11 01:13:53;;;;;;;4.63;3.00;;;;;;;6.76;100.00;150369.66;11064092;26;20048;-77
2024/04/11 01:18:55;;;;;;;3.28;2.55;;;;;;;6.58;100.00;150324.63;11065978;26;20001;-76
2024/04/11 01:23:59;;;;;;;3.10;2.72;;;;;;;6.37;100.00;150270.56;11063738;26;20005;-77
2024/04/11 01:29:02;;;;;;;3.03;2.42;;;;;;;6.17;100.00;150220.41;11069653;26;20005;-77
2024/04/11 01:34:07;;;;;;;3.70;2.28;;;;;;;6.13;100.00;150210.09;11071359;26;20012;-77
2024/04/11 01:39:11;;;;;;;2.35;1.88;;;;;;;6.10;100.00;150202.34;11073559;26;20017;-77
2024/04/11 01:44:14;;;;;;;3.25;2.58;;;;;;;6.31;100.00;150256.41;11073675;26;20005;-76
2024/04/11 01:49:16;;;;;;;4.75;2.60;;;;;;;6.21;100.00;150231.97;11072039;26;20005;-77
2024/04/11 01:54:19;;;;;;;3.28;2.70;;;;;;;6.36;100.00;150268.00;11041746;26;20001;-77
2024/04/11 01:59:21;;;;;;;3.50;2.83;;;;;;;6.33;100.00;150261.59;11069628;26;19993;-77
2024/04/11 02:04:23;;;;;;;4.15;2.40;;;;;;;6.38;100.00;150273.16;11071267;26;20470;-77
2024/04/11 02:09:31;;;;;;;3.00;2.20;;;;;;;6.17;100.00;150221.69;11070221;26;20001;-77
2024/04/11 02:14:33;;;;;;;3.83;2.40;;;;;;;6.00;100.00;150177.94;11071866;26;20009;-77
2024/04/11 02:19:37;;;;;;;3.40;2.50;;;;;;;5.95;100.00;150166.34;11071055;26;20001;-77
2024/04/11 02:24:39;;;;;;;3.15;2.85;;;;;;;5.77;100.00;150121.28;11041288;26;20008;-78
2024/04/11 02:29:41;;;;;;;4.50;2.65;;;;;;;5.82;100.00;150134.13;11070328;26;20037;-78
2024/04/11 02:34:42;;;;;;;3.55;2.53;;;;;;;5.87;100.00;150144.41;11069833;26;20012;-77
2024/04/11 02:39:45;;;;;;;3.83;3.25;;;;;;;5.83;100.00;150136.69;11068253;26;19993;-76
2024/04/11 02:44:50;;;;;;;5.30;3.30;;;;;;;5.67;100.00;150094.28;11070450;26;20007;-76
2024/04/11 02:49:53;;;;;;;2.88;2.40;;;;;;;5.48;100.00;150046.66;11072068;26;20016;-77
2024/04/11 02:54:55;;;;;;;2.88;2.60;;;;;;;5.67;100.00;150094.28;11072518;26;20029;-77
2024/04/11 02:59:59;;;;;;;2.45;2.25;;;;;;;5.53;100.00;150059.50;11071814;26;20007;-77
2024/04/11 03:05:01;;;;;;;3.45;2.65;;;;;;;5.36;100.00;150015.78;11072309;26;20005;-77
2024/04/11 03:10:03;;;;;;;3.05;2.42;;;;;;;5.40;100.00;150027.41;11072428;26;20005;-77
2024/04/11 03:15:08;;;;;;;3.53;2.45;;;;;;;5.34;100.00;150010.66;11070087;26;20001;-78
2024/04/11 03:20:11;;;;;;;4.07;3.00;;;;;;;5.19;100.00;149973.41;11071889;26;20013;-78
2024/04/11 03:25:13;;;;;;;4.20;2.97;;;;;;;5.60;100.00;150077.53;11070574;26;20001;-77
2024/04/11 03:30:15;;;;;;;2.53;2.33;;;;;;;5.34;100.00;150010.66;11070497;26;20004;-78
2024/04/11 03:35:17;;;;;;;3.22;2.50;;;;;;;5.19;100.00;149973.41;11069118;26;20076;-72
2024/04/11 03:40:19;;;;;;;6.88;3.08;;;;;;;5.26;100.00;149991.38;11067194;26;20372;-73
2024/04/11 03:45:26;;;;;;;4.68;3.05;;;;;;;5.29;100.00;150000.38;11066449;26;20492;-73
2024/04/11 03:50:29;;;;;;;;;;;;;;;5.18;100.00;149972.13;11067432;26;20015;-72
2024/04/11 03:55:41;;;;;;;3.73;2.60;;;;;;;5.11;100.00;149952.81;11066988;26;19926;-72
2024/04/11 04:00:48;;;;;;;3.75;2.90;;;;;;;4.88;100.00;149896.25;11066997;26;20295;-73
2024/04/11 04:05:51;;;;;;;3.22;2.80;;;;;;;5.18;100.00;149970.78;11065556;26;20511;-73
2024/04/11 04:10:52;;;;;;;3.67;3.00;;;;;;;5.31;100.00;150004.22;11065685;26;20142;-72
2024/04/11 04:15:57;;;;;;;3.35;2.88;;;;;;;5.05;100.00;149939.97;11066339;26;20005;-72
2024/04/11 04:21:00;;;;;;;4.13;3.50;;;;;;;4.98;100.00;149920.66;11067045;26;20356;-72
2024/04/11 04:26:08;;;;;;;3.17;2.80;;;;;;;4.93;100.00;149909.09;11065077;26;20001;-73
2024/04/11 04:31:16;;;;;;;5.25;2.88;;;;;;;4.95;100.00;149914.22;11066873;26;20018;-73
2024/04/11 04:36:27;;;;;;;3.58;2.67;;;;;;;5.00;100.00;149927.13;11064044;26;20443;-72
2024/04/11 04:41:29;;;;;;;5.22;3.90;;;;;;;5.03;100.00;149934.78;11064738;26;19997;-72
2024/04/11 04:46:32;;;;;;;3.65;2.65;;;;;;;5.05;100.00;149938.69;11066042;26;20013;-72
2024/04/11 04:51:36;;;;;;;3.15;2.85;;;;;;;5.05;100.00;149939.97;11065333;26;20023;-72
2024/04/11 04:56:41;;;;;;;5.35;3.22;;;;;;;5.12;100.00;149956.66;11066818;26;20013;-72
2024/04/11 05:01:45;;;;;;;8.13;3.35;;;;;;;5.10;100.00;149950.25;11066770;26;20001;-72
2024/04/11 05:06:49;;;;;;;3.90;2.65;;;;;;;5.20;100.00;149975.94;11072469;26;20009;-73
2024/04/11 05:11:51;;;;;;;4.70;2.90;;;;;;;5.40;100.00;150027.41;11070084;26;20017;-72
2024/04/11 05:16:53;;;;;;;4.28;3.40;;;;;;;5.45;100.00;150038.97;11071429;26;20005;-73
2024/04/11 05:21:55;;;;;;;7.47;4.10;;;;;;;5.57;100.00;150071.09;11071135;26;20000;-73
2024/04/11 05:26:58;;;;;;;5.03;3.60;;;;;;;5.79;100.00;150125.13;11070697;26;20012;-73
2024/04/11 05:32:01;;;;;;;3.78;2.20;;;;;;;6.30;100.00;150253.84;11070110;26;19997;-73
2024/04/11 05:37:05;;;;;;;4.82;2.53;;;;;;;6.29;100.00;150251.28;11070134;26;20005;-73
2024/04/11 05:42:09;;;;;;;3.13;2.15;;;;;;;6.62;100.00;150334.91;11069738;26;20001;-73
2024/04/11 05:47:11;;;;;;;3.25;2.22;;;;;;;6.71;100.00;150356.81;11069832;26;20017;-73
2024/04/11 05:52:13;;;;;;;3.60;2.70;;;;;;;6.77;100.00;150372.22;11069362;26;20483;-73
2024/04/11 05:57:15;;;;;;;3.65;2.25;;;;;;;6.93;99.34;150413.44;11039220;26;20009;-73
2024/04/11 06:02:17;;;;;;;4.97;2.40;;;;;;;7.14;99.68;150464.97;11068926;26;20015;-73
2024/04/11 06:07:21;;;;;;;3.75;2.33;;;;;;;8.01;97.29;150685.22;11068962;26;20001;-72
2024/04/11 06:12:22;;;;;;;2.28;2.00;;;;;;;8.51;87.93;150811.59;11068252;26;20032;-73
2024/04/11 06:17:27;;;;;;;3.85;2.35;;;;;;;9.05;84.46;150949.56;11068465;26;20001;-73
2024/04/11 06:22:32;;;;;;;3.90;2.03;;;;;;;9.15;85.63;150974.06;11068493;26;20024;-72
2024/04/11 06:27:36;;;;;;;2.85;1.85;;;;;;;9.10;84.19;150962.44;11068353;26;20012;-72
2024/04/11 06:32:38;;;;;;;2.30;2.10;;;;;;;9.24;83.38;150995.97;11068328;26;20001;-73
2024/04/11 06:37:44;;;;;;;3.22;1.77;;;;;;;9.72;82.55;151118.53;11068212;26;20504;-73
2024/04/11 06:42:50;;;;;;;3.30;2.22;;;;;;;9.79;82.99;151135.34;11067658;26;20025;-73
2024/04/11 06:47:55;;;;;;;2.92;2.17;;;;;;;9.71;82.64;151115.97;11095720;26;20003;-73
2024/04/11 06:52:59;;;;;;;3.50;2.03;;;;;;;10.00;83.02;151188.22;11172631;26;20398;-73
2024/04/11 06:58:06;;;;;;;4.30;2.25;;;;;;;10.08;83.13;151210.16;11184579;26;20003;-72
2024/04/11 07:03:16;;;;;;;5.40;2.53;;;;;;;10.83;80.01;151398.72;11215075;26;20000;-72
2024/04/11 07:08:29;;;;;;;3.58;2.60;;;;;;;10.65;78.92;151352.22;11212973;26;20443;-72
2024/04/11 07:13:33;;;;;;;3.92;2.20;;;;;;;10.62;81.03;151345.75;11214774;26;20017;-73
2024/04/11 07:18:44;;;;;;;3.20;1.95;;;;;;;10.88;80.49;151410.34;11214525;26;20406;-74
2024/04/11 07:23:53;;;;;;;5.45;2.28;;;;;;;11.09;79.71;151464.59;11187018;26;20014;-72
2024/04/11 07:29:00;;;;;;;2.53;2.22;;;;;;;11.09;79.60;151464.59;11150799;26;20004;-72
2024/04/11 07:34:05;;;;;;;2.92;2.35;;;;;;;11.25;76.97;151504.66;11210674;26;20008;-72
2024/04/11 07:39:13;;;;;;;3.77;2.57;;;;;;;11.72;77.54;151623.50;11189887;26;20000;-72
2024/04/11 07:44:17;;;;;;;4.15;2.47;;;;;;;11.98;76.14;151690.75;11141122;26;19993;-73
2024/04/11 07:49:24;;;;;;;4.72;2.72;;;;;;;12.32;74.84;151777.38;11143482;26;20079;-73
2024/04/11 07:54:26;;;;;;;2.67;1.42;;;;;;;12.54;70.00;151831.69;11143986;26;20012;-73
2024/04/11 07:59:46;;;;;;;2.95;1.63;;;;;;;12.85;72.24;151911.84;11145323;26;20016;-73
2024/04/11 08:04:49;;;;;;;2.30;1.33;;;;;;;13.26;67.34;152015.38;11143722;26;20452;-73
2024/04/11 08:09:55;;;;;;;1.70;1.02;;;;;;;13.76;62.97;152140.88;11140973;26;20007;-73
2024/04/11 08:14:58;;;;;;;1.48;0.80;;;;;;;14.44;57.31;152313.09;11139310;26;20027;-71
2024/04/11 08:20:00;;;;;;;0.55;0.40;;;;;;;14.64;54.66;152364.91;11139740;26;20019;-73
2024/04/11 08:25:02;;;;;;;3.08;0.50;;;;;;;14.97;47.75;152449.13;11143870;26;20131;-73
2024/04/11 08:30:11;;;;;;;0.90;0.40;;;;;;;15.22;49.64;152511.28;11142745;26;20081;-73
2024/04/11 08:35:17;;;;;;;0.88;0.35;;;;;;;15.51;47.29;152585.16;11141456;26;20078;-73
2024/04/11 08:40:20;;;;;;;0.90;0.43;;;;;;;15.60;49.43;152608.47;11135963;26;20008;-74
2024/04/11 08:45:26;;;;;;;0.40;0.40;;;;;;;15.84;46.76;152670.72;11137886;26;19992;-73
2024/04/11 08:50:29;;;;;;;0.80;0.43;;;;;;;16.30;44.29;152786.13;11137551;26;20008;-73
2024/04/11 08:55:32;;;;;;;1.02;0.60;;;;;;;16.18;43.99;152756.28;11108069;26;20000;-74
2024/04/11 09:00:40;;;;;;;1.27;0.43;;;;;;;16.42;45.08;152815.91;11136230;26;20000;-72
2024/04/11 09:05:44;;;;;;;0.95;0.43;;;;;;;16.45;41.92;152825.00;11137066;26;20119;-74
2024/04/11 09:10:49;;;;;;;1.48;0.40;;;;;;;16.48;39.22;152831.50;11138319;26;20000;-73
2024/04/11 09:16:00;;;;;;;0.70;0.40;;;;;;;16.48;41.13;152832.78;11137173;26;20077;-73
2024/04/11 09:21:06;;;;;;;1.83;0.50;;;;;;;16.94;40.02;152949.56;11135841;26;20000;-72
2024/04/11 09:26:10;;;;;;;2.00;0.50;;;;;;;17.08;40.50;152984.56;11135994;26;20000;-72
2024/04/11 09:31:12;;;;;;;0.88;0.47;;;;;;;16.94;40.60;152949.56;11138013;26;20022;-72
2024/04/11 09:36:17;;;;;;;1.92;0.77;;;;;;;17.14;39.71;153001.47;11136778;26;19996;-72
2024/04/11 09:41:24;;;;;;;1.13;0.50;;;;;;;17.54;38.08;153102.66;11136422;26;20178;-73
2024/04/11 09:46:29;;;;;;;0.43;0.25;;;;;;;17.79;37.48;153166.28;11135690;26;20000;-72
2024/04/11 09:51:35;;;;;;;1.40;0.47;;;;;;;17.97;36.90;153210.41;11142766;26;20000;-72
2024/04/11 09:56:37;;;;;;;0.68;0.40;;;;;;;17.84;37.08;153177.97;11143910;26;20002;-73
2024/04/11 10:01:40;;;;;;;1.02;0.40;;;;;;;17.64;37.00;153127.31;11144525;26;20074;-73
2024/04/11 10:06:44;;;;;;;2.00;0.80;;;;;;;17.88;37.41;153189.69;11141704;26;20004;-72
2024/04/11 10:11:47;;;;;;;1.58;0.45;;;;;;;18.11;37.85;153246.81;11143658;26;20317;-74
2024/04/11 10:17:01;;;;;;;0.80;0.45;;;;;;;18.67;37.19;153389.59;11146192;26;20534;-73
2024/04/11 10:22:05;;;;;;;1.85;0.55;;;;;;;18.63;40.37;153380.50;11146281;26;20138;-73
2024/04/11 10:27:13;;;;;;;0.70;0.55;;;;;;;18.52;38.35;153350.66;11153495;26;20004;-72
2024/04/11 10:32:26;;;;;;;1.48;0.70;;;;;;;18.63;35.91;153380.50;11147043;26;20535;-72
2024/04/11 10:37:33;;;;;;;2.45;0.80;;;;;;;18.58;38.17;153366.22;11145417;26;20001;-73
2024/04/11 10:42:37;;;;;;;1.08;0.60;;;;;;;18.84;40.89;153433.81;11147345;26;20434;-73
2024/04/11 10:47:41;;;;;;;1.00;0.73;;;;;;;19.20;38.51;153524.72;11144220;26;20012;-73
2024/04/11 10:52:47;;;;;;;1.35;0.90;;;;;;;19.23;37.53;153531.25;11114409;26;20081;-74
2024/04/11 10:58:08;;;;;;;1.88;0.75;;;;;;;19.30;36.35;153549.41;11146363;26;20004;-73
2024/04/11 11:03:14;;;;;;;1.33;0.82;;;;;;;19.02;36.82;153479.25;11114250;26;20015;-73
2024/04/11 11:08:16;;;;;;;1.58;0.50;;;;;;;18.99;36.67;153470.16;11145466;26;20068;-73
2024/04/11 11:13:18;;;;;;;1.70;0.60;;;;;;;18.62;36.79;153377.91;11145603;26;20056;-72
2024/04/11 11:18:24;;;;;;;1.20;0.70;;;;;;;19.23;36.15;153532.53;11143703;26;20037;-72
2024/04/11 11:23:33;;;;;;;2.78;0.85;;;;;;;18.98;34.22;153467.56;11140817;26;20004;-72
2024/04/11 11:28:35;;;;;;;1.58;0.63;;;;;;;19.28;36.83;153545.53;11139063;26;20024;-74
2024/04/11 11:33:41;;;;;;;0.98;0.45;;;;;;;19.35;35.61;153562.44;11140929;26;20004;-73
2024/04/11 11:38:48;;;;;;;1.27;0.40;;;;;;;19.02;37.49;153477.97;11141346;26;20011;-73
2024/04/11 11:43:54;;;;;;;1.70;0.52;;;;;;;19.41;36.34;153579.31;11140631;26;20070;-73
2024/04/11 11:48:57;;;;;;;1.30;0.50;;;;;;;19.51;36.69;153603.97;11140630;26;20081;-72
2024/04/11 11:54:12;;;;;;;0.75;0.40;;;;;;;19.81;36.39;153680.72;11139691;26;20294;-72
2024/04/11 11:59:19;;;;;;;2.13;0.73;;;;;;;19.79;35.69;153674.19;11140040;26;20004;-72
2024/04/11 12:04:22;;;;;;;1.15;0.50;;;;;;;19.56;33.72;153615.69;11139820;26;20472;-72
2024/04/11 12:09:31;;;;;;;1.05;0.50;;;;;;;19.46;36.80;153591.00;11136404;26;20441;-72
2024/04/11 12:14:34;;;;;;;1.17;0.60;;;;;;;19.68;38.09;153645.63;11138013;26;20000;-72
2024/04/11 12:19:37;;;;;;;2.20;0.55;;;;;;;19.95;35.03;153715.81;11138606;26;20403;-73
2024/04/11 12:24:39;;;;;;;0.52;0.40;;;;;;;19.60;36.13;153626.06;11107730;26;20469;-72
2024/04/11 12:29:42;;;;;;;0.70;0.43;;;;;;;20.01;35.73;153730.09;11138197;26;20069;-73
2024/04/11 12:34:45;;;;;;;2.00;0.60;;;;;;;19.78;37.12;153672.91;11137901;26;20023;-73
2024/04/11 12:39:54;;;;;;;1.80;0.52;;;;;;;19.56;37.25;153615.69;11138629;26;20107;-74
2024/04/11 12:45:00;;;;;;;1.70;0.70;;;;;;;19.95;35.38;153714.50;11139952;26;20344;-73
2024/04/11 12:50:05;;;;;;;2.03;0.55;;;;;;;19.48;35.44;153594.88;11139978;26;20004;-71
2024/04/11 12:55:08;;;;;;;1.17;0.50;;;;;;;19.39;35.63;153574.13;11138873;26;20008;-73
2024/04/11 13:05:40;;;;;;;2.13;0.50;;;;;;;19.29;36.20;153546.81;11139393;26;19992;-74
2024/04/11 13:10:45;;;;;;;2.15;0.60;;;;;;;19.05;36.25;153487.06;11141766;26;20444;-72
2024/04/11 13:15:49;;;;;;;0.85;0.40;;;;;;;19.03;36.32;153481.84;11139045;26;20000;-74
2024/04/11 13:20:52;;;;;;;1.25;0.60;;;;;;;18.96;34.84;153463.69;11110564;26;20349;-73
2024/04/11 13:25:57;;;;;;;0.60;0.50;;;;;;;19.09;35.30;153496.19;11147368;26;20018;-72
2024/04/11 13:31:00;;;;;;;1.20;0.40;;;;;;;18.85;35.37;153436.38;11147115;26;20012;-74
2024/04/11 13:36:12;;;;;;;1.23;0.30;;;;;;;18.90;35.51;153448.06;11145842;26;20000;-74
2024/04/11 13:46:34;;;;;;;1.17;0.40;;;;;;;18.89;36.63;153445.50;11148815;26;20069;-73
2024/04/11 13:51:44;;;;;;;0.75;0.45;;;;;;;18.81;34.87;153424.69;11143296;26;20043;-72
2024/04/11 13:56:59;;;;;;;1.70;0.50;;;;;;;18.76;36.23;153413.00;11143391;26;20008;-74
2024/04/11 14:02:09;;;;;;;0.55;0.40;;;;;;;18.83;35.96;153429.91;11142802;26;20012;-73
2024/04/11 14:07:11;;;;;;;1.00;0.50;;;;;;;18.72;35.49;153402.63;11142126;26;20004;-73
2024/04/11 14:12:16;;;;;;;1.02;0.40;;;;;;;18.80;36.39;153423.41;11143843;26;20008;-73
2024/04/11 14:17:22;;;;;;;0.77;0.40;;;;;;;18.52;36.67;153351.94;11141619;26;20004;-71
2024/04/11 14:22:29;;;;;;;1.17;0.52;;;;;;;18.42;36.76;153326.00;11143922;26;20019;-73
2024/04/11 14:27:32;;;;;;;1.08;0.50;;;;;;;18.59;37.28;153370.16;11144736;26;19996;-73
2024/04/11 14:38:07;;;;;;;0.93;0.60;;;;;;;18.78;35.90;153418.22;11143363;26;20004;-73
2024/04/11 14:43:20;;;;;;;1.05;0.50;;;;;;;18.64;35.09;153383.13;11142865;26;20007;-73
2024/04/11 14:48:33;;;;;;;1.20;0.40;;;;;;;18.41;37.04;153323.34;11143228;26;20003;-73
2024/04/11 14:53:38;;;;;;;2.20;0.50;;;;;;;18.41;37.96;153324.66;11143187;26;20014;-73
2024/04/11 14:58:47;;;;;;;0.50;0.40;;;;;;;18.81;35.02;153424.69;11141891;26;20333;-73
2024/04/11 15:03:57;;;;;;;1.55;0.57;;;;;;;18.51;34.77;153349.38;11141519;26;20000;-73
2024/04/11 15:09:14;;;;;;;0.95;0.90;;;;;;;18.65;36.50;153385.72;11139505;26;20012;-72
2024/04/11 15:14:24;;;;;;;0.68;0.40;;;;;;;18.58;36.34;153366.22;11141462;26;20050;-73
2024/04/11 15:19:27;;;;;;;1.58;0.65;;;;;;;18.53;37.27;153353.25;11142800;26;20028;-73
2024/04/11 15:24:29;;;;;;;1.00;0.40;;;;;;;18.46;38.20;153336.38;11141259;26;20085;-74
2024/04/11 15:29:47;;;;;;;0.93;0.60;;;;;;;18.18;39.09;153264.94;11141866;26;20033;-74
2024/04/11 15:35:07;;;;;;;3.13;0.50;;;;;;;18.11;39.15;153248.09;11139594;26;20359;-72
2024/04/11 15:40:22;;;;;;;0.47;0.40;;;;;;;18.06;38.96;153233.78;11141234;26;20028;-73
2024/04/11 15:45:29;;;;;;;1.40;0.70;;;;;;;18.11;40.22;153246.81;11139166;26;20081;-74
2024/04/11 15:50:36;;;;;;;1.65;0.45;;;;;;;17.97;40.93;153211.69;11138201;26;19996;-73
2024/04/11 15:55:52;;;;;;;1.25;0.60;;;;;;;18.00;40.62;153218.22;11140287;26;19996;-73
2024/04/11 16:00:54;;;;;;;0.23;0.20;;;;;;;18.07;40.54;153237.69;11143921;26;20036;-73
2024/04/11 16:06:01;;;;;;;1.13;0.40;;;;;;;17.84;41.40;153177.97;11141940;26;20085;-73
2024/04/11 16:11:04;;;;;;;2.03;0.60;;;;;;;17.83;41.65;153176.66;11141690;26;19998;-73
2024/04/11 16:16:09;;;;;;;1.10;0.40;;;;;;;17.81;41.61;153170.19;11137928;26;20015;-73
2024/04/11 16:21:14;;;;;;;0.80;0.40;;;;;;;17.63;41.94;153124.72;11133196;26;20012;-72
2024/04/11 16:26:19;;;;;;;1.85;0.50;;;;;;;17.81;41.92;153170.19;11141042;26;20020;-73
2024/04/11 16:31:27;;;;;;;1.08;0.70;;;;;;;17.62;41.93;153123.44;11143533;26;20007;-73
2024/04/11 16:36:30;;;;;;;1.23;0.50;;;;;;;17.56;42.74;153107.84;11182984;26;19995;-73
2024/04/11 16:41:39;;;;;;;1.08;0.50;;;;;;;17.50;42.83;153092.28;11151020;26;20005;-73
2024/04/11 16:46:41;;;;;;;2.58;0.75;;;;;;;17.43;43.09;153072.81;11142860;26;20000;-73
2024/04/11 16:51:43;;;;;;;0.57;0.50;;;;;;;17.55;42.98;153105.25;11143775;26;20005;-73
2024/04/11 16:56:48;;;;;;;1.40;0.43;;;;;;;17.29;44.31;153037.78;11143298;26;20069;-73
2024/04/11 17:01:51;;;;;;;1.20;0.43;;;;;;;17.10;44.20;152989.78;11141753;26;20004;-72
2024/04/11 17:06:57;;;;;;;1.55;0.60;;;;;;;16.97;45.62;152957.34;11174777;26;20344;-72
2024/04/11 17:12:03;;;;;;;0.63;0.38;;;;;;;16.89;45.99;152937.88;11214213;26;20348;-73
2024/04/11 17:18:07;;;;;;;4.75;0.50;;;;;;;16.87;46.66;152932.72;11169788;26;20409;-73
2024/04/11 17:27:59;;;;;;;2.00;0.65;;;;;;;16.37;46.41;152804.25;11122387;26;19997;-73
2024/04/11 17:33:09;;;;;;;1.00;0.65;;;;;;;16.22;47.39;152765.38;11151639;26;20003;-73
2024/04/11 17:38:24;;;;;;;1.15;0.40;;;;;;;16.08;48.04;152731.66;11153118;26;20091;-73
2024/04/11 17:43:27;;;;;;;1.20;0.57;;;;;;;16.01;48.21;152713.50;11069463;26;20008;-73
2024/04/11 17:48:40;;;;;;;1.15;0.52;;;;;;;15.87;48.56;152678.50;11070203;26;20001;-73
2024/04/11 17:53:47;;;;;;;0.90;0.50;;;;;;;15.75;48.98;152647.38;11067898;26;20001;-74
2024/04/11 17:58:52;;;;;;;1.10;0.75;;;;;;;15.62;48.98;152614.94;11067425;26;20042;-73
2024/04/11 18:03:58;;;;;;;1.02;0.65;;;;;;;15.66;49.67;152624.06;11066659;26;20001;-73
2024/04/11 18:09:09;;;;;;;1.70;0.60;;;;;;;15.64;49.04;152618.91;11070547;26;20019;-73
2024/04/11 18:14:13;;;;;;;0.80;0.47;;;;;;;15.45;50.35;152570.91;11078267;26;20071;-73
2024/04/11 18:19:15;;;;;;;0.70;0.40;;;;;;;15.20;52.43;152506.13;11075910;26;20013;-73
2024/04/11 18:24:18;;;;;;;0.98;0.52;;;;;;;14.96;53.99;152446.50;11073935;26;20001;-74
2024/04/11 18:29:23;;;;;;;1.17;0.52;;;;;;;14.97;54.37;152447.84;11075497;26;20005;-74
2024/04/11 18:34:25;;;;;;;1.38;0.85;;;;;;;15.06;56.49;152471.16;11078332;26;20004;-73
2024/04/11 18:39:32;;;;;;;1.23;0.80;;;;;;;15.07;55.82;152475.03;11082009;26;20385;-74
2024/04/11 18:44:50;;;;;;;1.70;0.80;;;;;;;14.78;58.06;152401.16;11190504;26;20011;-74
2024/04/11 18:49:52;;;;;;;1.02;0.70;;;;;;;14.59;60.19;152353.25;11223009;26;20007;-73
2024/04/11 18:54:55;;;;;;;1.17;0.60;;;;;;;14.51;60.42;152331.25;11225506;26;20020;-73
2024/04/11 19:00:03;;;;;;;1.50;1.00;;;;;;;14.71;60.73;152383.06;11228657;26;20003;-74
2024/04/11 19:05:09;;;;;;;1.75;1.00;;;;;;;14.36;62.23;152293.66;11224797;26;20003;-74
2024/04/11 19:10:14;;;;;;;2.03;1.02;;;;;;;14.25;63.88;152266.44;11222915;26;20019;-74
2024/04/11 19:15:18;;;;;;;2.05;1.27;;;;;;;14.20;63.54;152252.22;11220482;26;20341;-73
2024/04/11 19:20:21;;;;;;;3.25;1.50;;;;;;;14.11;64.31;152230.19;11220106;26;20007;-73
2024/04/11 19:25:27;;;;;;;2.25;1.20;;;;;;;14.17;64.51;152244.47;11220569;26;20072;-74
2024/04/11 19:30:36;;;;;;;2.33;1.17;;;;;;;14.11;65.12;152230.19;11221238;26;20000;-73
2024/04/11 19:35:49;;;;;;;1.75;1.35;;;;;;;14.23;64.31;152260.00;11221825;26;20053;-74
2024/04/11 19:40:56;;;;;;;1.35;1.00;;;;;;;14.23;65.14;152260.00;11220089;26;19999;-73
2024/04/11 19:46:07;;;;;;;1.88;1.33;;;;;;;14.09;65.55;152226.34;11222590;26;20003;-73
2024/04/11 19:51:16;;;;;;;2.03;1.20;;;;;;;14.03;65.92;152209.47;11221021;26;19996;-73
2024/04/11 19:56:24;;;;;;;5.32;1.17;;;;;;;13.87;67.53;152169.38;11220346;26;20350;-75
2024/04/11 20:01:37;;;;;;;1.63;0.90;;;;;;;13.80;67.63;152151.25;11191775;26;20008;-74
2024/04/11 20:06:46;;;;;;;2.08;1.10;;;;;;;13.91;66.40;152179.75;11222429;26;20000;-78
2024/04/11 20:11:49;;;;;;;1.83;1.20;;;;;;;13.94;66.85;152186.19;11223274;26;19999;-75
2024/04/11 20:16:57;;;;;;;2.53;1.10;;;;;;;13.81;67.10;152153.81;11221310;26;20161;-73
2024/04/11 20:22:05;;;;;;;4.03;1.98;;;;;;;13.72;66.01;152130.53;11222461;26;20007;-73
2024/04/11 20:27:09;;;;;;;2.25;1.30;;;;;;;13.61;65.62;152103.38;11218627;26;19999;-73
2024/04/11 20:32:12;;;;;;;2.13;1.15;;;;;;;13.58;65.80;152095.59;11219441;26;20015;-73
2024/04/11 20:37:17;;;;;;;4.05;1.58;;;;;;;13.68;65.33;152120.16;11220549;26;19996;-73
2024/04/11 20:47:54;;;;;;;1.52;1.00;;;;;;;13.18;67.05;151993.34;11217712;26;20474;-73
2024/04/11 21:35:50;;;;;;;1.40;0.90;;;;;;;12.28;72.68;151765.72;11219358;26;20040;-72
2024/04/11 21:46:15;;;;;;;2.50;0.80;;;;;;;11.91;74.34;151671.34;11221707;26;19999;-72
2024/04/11 21:51:19;;;;;;;1.10;0.90;;;;;;;11.79;74.87;151641.59;11223011;26;20015;-72
2024/04/11 21:56:21;;;;;;;2.72;1.00;;;;;;;11.69;75.58;151615.78;11217577;26;20003;-72
2024/04/11 22:01:43;;;;;;;2.40;1.13;;;;;;;11.71;73.38;151622.22;11219740;26;20381;-73
2024/04/11 22:06:55;;;;;;;8.63;0.80;;;;;;;11.86;72.53;151659.72;11218619;26;20532;-71
2024/04/11 22:12:00;;;;;;;1.20;0.75;;;;;;;11.69;73.14;151615.78;11219040;26;19996;-70
2024/04/11 22:17:06;;;;;;;2.22;0.93;;;;;;;11.56;73.95;151584.75;11217790;26;20077;-72
2024/04/11 22:22:13;;;;;;;1.38;0.70;;;;;;;11.66;74.08;151609.28;11217580;26;20035;-72
2024/04/11 22:27:17;;;;;;;1.30;0.70;;;;;;;11.50;74.87;151569.22;11217381;26;20011;-73
2024/04/11 22:32:21;;;;;;;1.15;0.80;;;;;;;11.43;75.07;151549.88;11217351;26;20379;-73
2024/04/11 22:37:24;;;;;;;2.03;0.82;;;;;;;11.51;74.34;151570.50;11215081;26;20054;-73
2024/04/11 22:42:33;;;;;;;3.70;0.98;;;;;;;11.47;74.08;151560.22;11216123;26;20468;-72
2024/04/11 22:47:40;;;;;;;1.35;0.77;;;;;;;11.32;75.06;151522.72;11214160;26;20040;-74
2024/04/11 22:52:42;;;;;;;1.90;0.80;;;;;;;11.11;76.76;151469.72;11215614;26;20004;-73
2024/04/11 22:57:52;;;;;;;2.67;1.00;;;;;;;11.06;76.94;151458.09;11214596;26;20491;-72
2024/04/11 23:03:08;;;;;;;2.00;0.90;;;;;;;11.30;78.08;151517.56;11214426;26;19999;-72
2024/04/11 23:08:12;;;;;;;2.60;1.23;;;;;;;11.35;78.26;151530.47;11214584;26;20000;-73
2024/04/11 23:13:16;;;;;;;4.20;1.20;;;;;;;11.18;77.97;151486.56;11216491;26;20445;-72
2024/04/11 23:18:20;;;;;;;1.67;0.85;;;;;;;10.93;79.78;151423.25;11217274;26;20029;-72
2024/04/11 23:23:26;;;;;;;1.88;0.90;;;;;;;10.76;80.92;151381.94;11216898;26;20018;-74
2024/04/11 23:28:28;;;;;;;2.45;0.90;;;;;;;10.50;82.16;151316.09;11216795;26;20019;-71
2024/04/11 23:33:33;;;;;;;1.83;1.00;;;;;;;10.57;83.01;151334.13;11215742;26;20146;-72
2024/04/11 23:38:40;;;;;;;1.65;1.27;;;;;;;10.63;85.24;151348.38;11215595;26;20011;-72
2024/04/11 23:43:46;;;;;;;3.08;1.30;;;;;;;10.27;86.41;151256.66;11213600;26;20008;-72
2024/04/11 23:48:49;;;;;;;2.73;1.50;;;;;;;10.30;87.21;151264.44;11214658;26;20347;-72
2024/04/11 23:53:53;;;;;;;1.75;1.00;;;;;;;10.57;86.35;151334.13;11211917;26;20237;-71
2024/04/11 23:58:55;;;;;;;1.50;1.25;;;;;;;10.23;87.08;151246.34;11211702;26;20006;-72
